sensor_id;sensor_type;location;lat;lon;timestamp;temperature;humidity
47520;DHT22;33252;48.122;11.538;2022-10-22T00:01:51;14.00;99.90
47520;DHT22;33252;48.122;11.538;2022-10-22T00:04:17;14.00;99.90
47520;DHT22;33252;48.122;11.538;2022-10-22T00:06:42;14.00;99.90
47520;DHT22;33252;48.122;11.538;2022-10-22T00:09:10;14.00;99.90
47520;DHT22;33252;48.122;11.538;2022-10-22T00:11:36;14.00;99.90
47520;DHT22;33252;48.122;11.538;2022-10-22T00:14:03;14.00;99.90
47520;DHT22;33252;48.122;11.538;2022-10-22T00:16:28;14.00;99.90
47520;DHT22;33252;48.122;11.538;2022-10-22T00:18:54;14.00;99.90
47520;DHT22;33252;48.122;11.538;2022-10-22T00:21:19;13.90;99.90
47520;DHT22;33252;48.122;11.538;2022-10-22T00:23:45;13.90;99.90
47520;DHT22;33252;48.122;11.538;2022-10-22T00:26:11;13.90;99.90
47520;DHT22;33252;48.122;11.538;2022-10-22T00:28:37;13.90;99.90
47520;DHT22;33252;48.122;11.538;2022-10-22T00:31:04;13.90;99.90
47520;DHT22;33252;48.122;11.538;2022-10-22T00:33:30;13.90;99.90
47520;DHT22;33252;48.122;11.538;2022-10-22T00:35:56;13.80;99.90
47520;DHT22;33252;48.122;11.538;2022-10-22T00:38:22;13.80;99.90
47520;DHT22;33252;48.122;11.538;2022-10-22T00:40:48;13.80;99.90
47520;DHT22;33252;48.122;11.538;2022-10-22T00:43:16;13.80;99.90
47520;DHT22;33252;48.122;11.538;2022-10-22T00:45:43;13.80;99.90
47520;DHT22;33252;48.122;11.538;2022-10-22T00:48:22;13.80;99.90
47520;DHT22;33252;48.122;11.538;2022-10-22T00:50:53;13.80;99.90
47520;DHT22;33252;48.122;11.538;2022-10-22T00:53:42;13.70;99.90
47520;DHT22;33252;48.122;11.538;2022-10-22T00:56:10;13.70;99.90
47520;DHT22;33252;48.122;11.538;2022-10-22T00:58:44;13.70;99.90
47520;DHT22;33252;48.122;11.538;2022-10-22T01:01:17;13.60;99.90
47520;DHT22;33252;48.122;11.538;2022-10-22T01:03:44;13.60;99.90
47520;DHT22;33252;48.122;11.538;2022-10-22T01:06:14;13.60;99.90
47520;DHT22;33252;48.122;11.538;2022-10-22T01:09:03;13.60;99.90
47520;DHT22;33252;48.122;11.538;2022-10-22T01:21:56;13.50;99.90
47520;DHT22;33252;48.122;11.538;2022-10-22T01:27:25;13.60;99.90
47520;DHT22;33252;48.122;11.538;2022-10-22T01:32:29;13.50;99.90
47520;DHT22;33252;48.122;11.538;2022-10-22T01:35:04;13.50;99.90
47520;DHT22;33252;48.122;11.538;2022-10-22T01:37:33;13.50;99.90
47520;DHT22;33252;48.122;11.538;2022-10-22T01:40:01;13.50;99.90
47520;DHT22;33252;48.122;11.538;2022-10-22T01:42:27;13.50;99.90
47520;DHT22;33252;48.122;11.538;2022-10-22T01:44:53;13.50;99.90
47520;DHT22;33252;48.122;11.538;2022-10-22T01:50:15;13.40;99.90
47520;DHT22;33252;48.122;11.538;2022-10-22T01:55:28;13.40;99.90
47520;DHT22;33252;48.122;11.538;2022-10-22T01:58:27;13.40;99.90
47520;DHT22;33252;48.122;11.538;2022-10-22T02:00:59;13.40;99.90
47520;DHT22;33252;48.122;11.538;2022-10-22T02:03:40;13.50;99.90
47520;DHT22;33252;48.122;11.538;2022-10-22T02:06:15;13.50;99.90
47520;DHT22;33252;48.122;11.538;2022-10-22T02:08:42;13.50;99.90
47520;DHT22;33252;48.122;11.538;2022-10-22T02:11:10;13.50;99.90
47520;DHT22;33252;48.122;11.538;2022-10-22T02:13:44;13.50;99.90
47520;DHT22;33252;48.122;11.538;2022-10-22T02:16:15;13.50;99.90
47520;DHT22;33252;48.122;11.538;2022-10-22T02:18:44;13.50;99.90
47520;DHT22;33252;48.122;11.538;2022-10-22T02:21:10;13.50;99.90
47520;DHT22;33252;48.122;11.538;2022-10-22T02:23:37;13.50;99.90
47520;DHT22;33252;48.122;11.538;2022-10-22T02:26:12;13.50;99.90
47520;DHT22;33252;48.122;11.538;2022-10-22T02:28:48;13.50;99.90
47520;DHT22;33252;48.122;11.538;2022-10-22T02:31:21;13.50;99.90
47520;DHT22;33252;48.122;11.538;2022-10-22T02:33:50;13.50;99.90
47520;DHT22;33252;48.122;11.538;2022-10-22T02:36:18;13.50;99.90
47520;DHT22;33252;48.122;11.538;2022-10-22T02:38:46;13.50;99.90
47520;DHT22;33252;48.122;11.538;2022-10-22T02:41:15;13.50;99.90
47520;DHT22;33252;48.122;11.538;2022-10-22T02:43:42;13.50;99.90
47520;DHT22;33252;48.122;11.538;2022-10-22T02:46:09;13.40;99.90
47520;DHT22;33252;48.122;11.538;2022-10-22T02:48:36;13.40;99.90
47520;DHT22;33252;48.122;11.538;2022-10-22T02:51:02;13.50;99.90
47520;DHT22;33252;48.122;11.538;2022-10-22T02:53:27;13.40;99.90
47520;DHT22;33252;48.122;11.538;2022-10-22T02:55:53;13.50;99.90
47520;DHT22;33252;48.122;11.538;2022-10-22T02:58:18;13.50;99.90
47520;DHT22;33252;48.122;11.538;2022-10-22T03:00:44;13.50;99.90
47520;DHT22;33252;48.122;11.538;2022-10-22T03:03:10;13.50;99.90
47520;DHT22;33252;48.122;11.538;2022-10-22T03:05:35;13.50;99.90
47520;DHT22;33252;48.122;11.538;2022-10-22T03:08:01;13.50;99.90
47520;DHT22;33252;48.122;11.538;2022-10-22T03:10:27;13.50;99.90
47520;DHT22;33252;48.122;11.538;2022-10-22T03:12:52;13.50;99.90
47520;DHT22;33252;48.122;11.538;2022-10-22T03:15:18;13.50;99.90
47520;DHT22;33252;48.122;11.538;2022-10-22T03:17:44;13.50;99.90
47520;DHT22;33252;48.122;11.538;2022-10-22T03:20:10;13.50;99.90
47520;DHT22;33252;48.122;11.538;2022-10-22T03:22:36;13.50;99.90
47520;DHT22;33252;48.122;11.538;2022-10-22T03:25:07;13.50;99.90
47520;DHT22;33252;48.122;11.538;2022-10-22T03:27:36;13.50;99.90
47520;DHT22;33252;48.122;11.538;2022-10-22T03:30:03;13.40;99.90
47520;DHT22;33252;48.122;11.538;2022-10-22T03:32:29;13.40;99.90
47520;DHT22;33252;48.122;11.538;2022-10-22T03:34:55;13.40;99.90
47520;DHT22;33252;48.122;11.538;2022-10-22T03:37:21;13.30;99.90
47520;DHT22;33252;48.122;11.538;2022-10-22T03:39:48;13.20;99.90
47520;DHT22;33252;48.122;11.538;2022-10-22T03:42:15;13.20;99.90
47520;DHT22;33252;48.122;11.538;2022-10-22T03:44:41;13.00;99.90
47520;DHT22;33252;48.122;11.538;2022-10-22T03:47:07;13.10;99.90
47520;DHT22;33252;48.122;11.538;2022-10-22T03:49:33;13.00;99.90
47520;DHT22;33252;48.122;11.538;2022-10-22T03:52:10;13.00;99.90
47520;DHT22;33252;48.122;11.538;2022-10-22T03:54:37;12.90;99.90
47520;DHT22;33252;48.122;11.538;2022-10-22T03:57:04;12.90;99.90
47520;DHT22;33252;48.122;11.538;2022-10-22T03:59:39;12.90;99.90
47520;DHT22;33252;48.122;11.538;2022-10-22T04:02:05;12.80;99.90
47520;DHT22;33252;48.122;11.538;2022-10-22T04:04:31;12.80;99.90
47520;DHT22;33252;48.122;11.538;2022-10-22T04:06:57;12.80;99.90
47520;DHT22;33252;48.122;11.538;2022-10-22T04:09:23;12.70;99.90
47520;DHT22;33252;48.122;11.538;2022-10-22T04:11:48;12.70;99.90
47520;DHT22;33252;48.122;11.538;2022-10-22T04:14:14;12.80;99.90
47520;DHT22;33252;48.122;11.538;2022-10-22T04:16:40;12.70;99.90
47520;DHT22;33252;48.122;11.538;2022-10-22T04:19:06;12.70;99.90
47520;DHT22;33252;48.122;11.538;2022-10-22T04:21:32;12.70;99.90
47520;DHT22;33252;48.122;11.538;2022-10-22T04:23:58;12.70;99.90
47520;DHT22;33252;48.122;11.538;2022-10-22T04:26:24;12.60;99.90
47520;DHT22;33252;48.122;11.538;2022-10-22T04:28:51;12.70;99.90
47520;DHT22;33252;48.122;11.538;2022-10-22T04:31:20;12.60;99.90
47520;DHT22;33252;48.122;11.538;2022-10-22T04:33:46;12.60;99.90
47520;DHT22;33252;48.122;11.538;2022-10-22T04:36:17;12.60;99.90
47520;DHT22;33252;48.122;11.538;2022-10-22T04:38:44;12.60;99.90
47520;DHT22;33252;48.122;11.538;2022-10-22T04:41:15;12.50;99.90
47520;DHT22;33252;48.122;11.538;2022-10-22T04:43:41;12.50;99.90
47520;DHT22;33252;48.122;11.538;2022-10-22T04:46:08;12.60;99.90
47520;DHT22;33252;48.122;11.538;2022-10-22T04:48:38;12.60;99.90
47520;DHT22;33252;48.122;11.538;2022-10-22T04:51:05;12.60;99.90
47520;DHT22;33252;48.122;11.538;2022-10-22T04:53:32;12.50;99.90
47520;DHT22;33252;48.122;11.538;2022-10-22T04:56:27;12.50;99.90
47520;DHT22;33252;48.122;11.538;2022-10-22T04:58:57;12.50;99.90
47520;DHT22;33252;48.122;11.538;2022-10-22T05:01:26;12.50;99.90
47520;DHT22;33252;48.122;11.538;2022-10-22T05:03:53;12.60;99.90
47520;DHT22;33252;48.122;11.538;2022-10-22T05:06:20;12.50;99.90
47520;DHT22;33252;48.122;11.538;2022-10-22T05:08:46;12.50;99.90
47520;DHT22;33252;48.122;11.538;2022-10-22T05:11:29;12.50;99.90
47520;DHT22;33252;48.122;11.538;2022-10-22T05:13:57;12.40;99.90
47520;DHT22;33252;48.122;11.538;2022-10-22T05:16:23;12.40;99.90
47520;DHT22;33252;48.122;11.538;2022-10-22T05:18:49;12.40;99.90
47520;DHT22;33252;48.122;11.538;2022-10-22T05:21:17;12.40;99.90
47520;DHT22;33252;48.122;11.538;2022-10-22T05:23:44;12.30;99.90
47520;DHT22;33252;48.122;11.538;2022-10-22T05:26:12;12.30;99.90
47520;DHT22;33252;48.122;11.538;2022-10-22T05:28:38;12.40;99.90
47520;DHT22;33252;48.122;11.538;2022-10-22T05:31:06;12.30;99.90
47520;DHT22;33252;48.122;11.538;2022-10-22T05:33:32;12.30;99.90
47520;DHT22;33252;48.122;11.538;2022-10-22T05:35:59;12.40;99.90
47520;DHT22;33252;48.122;11.538;2022-10-22T05:38:25;12.30;99.90
47520;DHT22;33252;48.122;11.538;2022-10-22T05:41:08;12.30;99.90
47520;DHT22;33252;48.122;11.538;2022-10-22T05:43:35;12.30;99.90
47520;DHT22;33252;48.122;11.538;2022-10-22T05:46:03;12.30;99.90
47520;DHT22;33252;48.122;11.538;2022-10-22T05:48:29;12.30;99.90
47520;DHT22;33252;48.122;11.538;2022-10-22T05:50:54;12.20;99.90
47520;DHT22;33252;48.122;11.538;2022-10-22T05:53:20;12.30;99.90
47520;DHT22;33252;48.122;11.538;2022-10-22T05:55:46;12.30;99.90
47520;DHT22;33252;48.122;11.538;2022-10-22T05:58:12;12.30;99.90
47520;DHT22;33252;48.122;11.538;2022-10-22T06:00:38;12.30;99.90
47520;DHT22;33252;48.122;11.538;2022-10-22T06:03:04;12.40;99.90
47520;DHT22;33252;48.122;11.538;2022-10-22T06:05:29;12.40;99.90
47520;DHT22;33252;48.122;11.538;2022-10-22T06:07:56;12.40;99.90
47520;DHT22;33252;48.122;11.538;2022-10-22T06:10:22;12.40;99.90
47520;DHT22;33252;48.122;11.538;2022-10-22T06:12:49;12.50;99.90
47520;DHT22;33252;48.122;11.538;2022-10-22T06:15:16;12.40;99.90
47520;DHT22;33252;48.122;11.538;2022-10-22T06:17:46;12.50;99.90
47520;DHT22;33252;48.122;11.538;2022-10-22T06:20:12;12.50;99.90
47520;DHT22;33252;48.122;11.538;2022-10-22T06:22:38;12.40;99.90
47520;DHT22;33252;48.122;11.538;2022-10-22T06:25:05;12.50;99.90
47520;DHT22;33252;48.122;11.538;2022-10-22T06:27:33;12.40;99.90
47520;DHT22;33252;48.122;11.538;2022-10-22T06:29:58;12.40;99.90
47520;DHT22;33252;48.122;11.538;2022-10-22T06:32:24;12.50;99.90
47520;DHT22;33252;48.122;11.538;2022-10-22T06:34:50;12.40;99.90
47520;DHT22;33252;48.122;11.538;2022-10-22T06:37:16;12.50;99.90
47520;DHT22;33252;48.122;11.538;2022-10-22T06:39:42;12.50;99.90
47520;DHT22;33252;48.122;11.538;2022-10-22T06:42:07;12.60;99.90
47520;DHT22;33252;48.122;11.538;2022-10-22T06:44:33;12.60;99.90
47520;DHT22;33252;48.122;11.538;2022-10-22T06:46:59;12.60;99.90
47520;DHT22;33252;48.122;11.538;2022-10-22T06:49:24;12.60;99.90
47520;DHT22;33252;48.122;11.538;2022-10-22T06:51:53;12.70;99.90
47520;DHT22;33252;48.122;11.538;2022-10-22T06:54:20;12.60;99.90
47520;DHT22;33252;48.122;11.538;2022-10-22T06:56:46;12.70;99.90
47520;DHT22;33252;48.122;11.538;2022-10-22T06:59:12;12.60;99.90
47520;DHT22;33252;48.122;11.538;2022-10-22T07:01:38;12.60;99.90
47520;DHT22;33252;48.122;11.538;2022-10-22T07:04:05;12.60;99.90
47520;DHT22;33252;48.122;11.538;2022-10-22T07:06:31;12.60;99.90
47520;DHT22;33252;48.122;11.538;2022-10-22T07:08:58;12.60;99.90
47520;DHT22;33252;48.122;11.538;2022-10-22T07:11:28;12.70;99.90
47520;DHT22;33252;48.122;11.538;2022-10-22T07:13:56;12.70;99.90
47520;DHT22;33252;48.122;11.538;2022-10-22T07:16:22;12.70;99.90
47520;DHT22;33252;48.122;11.538;2022-10-22T07:18:48;12.70;99.90
47520;DHT22;33252;48.122;11.538;2022-10-22T07:21:16;12.80;99.90
47520;DHT22;33252;48.122;11.538;2022-10-22T07:23:42;12.80;99.90
47520;DHT22;33252;48.122;11.538;2022-10-22T07:26:08;12.80;99.90
47520;DHT22;33252;48.122;11.538;2022-10-22T07:28:36;12.80;99.90
47520;DHT22;33252;48.122;11.538;2022-10-22T07:31:04;12.80;99.90
47520;DHT22;33252;48.122;11.538;2022-10-22T07:33:30;12.80;99.90
47520;DHT22;33252;48.122;11.538;2022-10-22T07:36:02;12.90;99.90
47520;DHT22;33252;48.122;11.538;2022-10-22T07:38:28;12.90;99.90
47520;DHT22;33252;48.122;11.538;2022-10-22T07:40:54;12.90;99.90
47520;DHT22;33252;48.122;11.538;2022-10-22T07:43:20;12.90;99.90
47520;DHT22;33252;48.122;11.538;2022-10-22T07:45:45;12.90;99.90
47520;DHT22;33252;48.122;11.538;2022-10-22T07:48:11;13.00;99.90
47520;DHT22;33252;48.122;11.538;2022-10-22T07:50:37;13.00;99.90
47520;DHT22;33252;48.122;11.538;2022-10-22T07:53:02;13.10;99.90
47520;DHT22;33252;48.122;11.538;2022-10-22T07:55:28;13.10;99.90
47520;DHT22;33252;48.122;11.538;2022-10-22T07:57:54;13.10;99.90
47520;DHT22;33252;48.122;11.538;2022-10-22T08:00:20;13.10;99.90
47520;DHT22;33252;48.122;11.538;2022-10-22T08:02:45;13.20;99.90
47520;DHT22;33252;48.122;11.538;2022-10-22T08:05:11;13.20;99.90
47520;DHT22;33252;48.122;11.538;2022-10-22T08:07:41;13.20;99.90
47520;DHT22;33252;48.122;11.538;2022-10-22T08:10:08;13.20;99.90
47520;DHT22;33252;48.122;11.538;2022-10-22T08:12:34;13.20;99.90
47520;DHT22;33252;48.122;11.538;2022-10-22T08:15:00;13.20;99.90
47520;DHT22;33252;48.122;11.538;2022-10-22T08:17:26;13.20;99.90
47520;DHT22;33252;48.122;11.538;2022-10-22T08:19:52;13.20;99.90
47520;DHT22;33252;48.122;11.538;2022-10-22T08:22:17;13.30;99.90
47520;DHT22;33252;48.122;11.538;2022-10-22T08:24:43;13.30;99.90
47520;DHT22;33252;48.122;11.538;2022-10-22T08:27:09;13.30;99.90
47520;DHT22;33252;48.122;11.538;2022-10-22T08:29:34;13.40;99.90
47520;DHT22;33252;48.122;11.538;2022-10-22T08:32:00;13.30;99.90
47520;DHT22;33252;48.122;11.538;2022-10-22T08:34:27;13.40;99.90
47520;DHT22;33252;48.122;11.538;2022-10-22T08:36:53;13.30;99.90
47520;DHT22;33252;48.122;11.538;2022-10-22T08:39:19;13.40;99.90
47520;DHT22;33252;48.122;11.538;2022-10-22T08:41:52;13.40;99.90
47520;DHT22;33252;48.122;11.538;2022-10-22T08:44:52;13.40;99.90
47520;DHT22;33252;48.122;11.538;2022-10-22T08:50:03;13.50;99.90
47520;DHT22;33252;48.122;11.538;2022-10-22T08:52:31;13.50;99.90
47520;DHT22;33252;48.122;11.538;2022-10-22T08:54:59;13.50;99.90
47520;DHT22;33252;48.122;11.538;2022-10-22T08:57:36;13.50;99.90
47520;DHT22;33252;48.122;11.538;2022-10-22T09:00:32;13.50;99.90
47520;DHT22;33252;48.122;11.538;2022-10-22T09:02:59;13.50;99.90
47520;DHT22;33252;48.122;11.538;2022-10-22T09:08:29;13.60;99.90
47520;DHT22;33252;48.122;11.538;2022-10-22T09:11:03;13.60;99.90
47520;DHT22;33252;48.122;11.538;2022-10-22T09:13:30;13.60;99.90
47520;DHT22;33252;48.122;11.538;2022-10-22T09:16:00;13.70;99.90
47520;DHT22;33252;48.122;11.538;2022-10-22T09:18:38;13.60;99.90
47520;DHT22;33252;48.122;11.538;2022-10-22T09:21:38;13.60;99.90
47520;DHT22;33252;48.122;11.538;2022-10-22T09:24:26;13.70;99.90
47520;DHT22;33252;48.122;11.538;2022-10-22T09:26:52;13.70;99.90
47520;DHT22;33252;48.122;11.538;2022-10-22T09:29:23;13.80;99.90
47520;DHT22;33252;48.122;11.538;2022-10-22T09:31:55;13.80;99.90
47520;DHT22;33252;48.122;11.538;2022-10-22T09:34:21;13.90;99.90
47520;DHT22;33252;48.122;11.538;2022-10-22T09:36:46;13.90;99.90
47520;DHT22;33252;48.122;11.538;2022-10-22T09:39:34;14.00;99.90
47520;DHT22;33252;48.122;11.538;2022-10-22T09:42:01;14.00;99.90
47520;DHT22;33252;48.122;11.538;2022-10-22T09:44:27;14.10;99.90
47520;DHT22;33252;48.122;11.538;2022-10-22T09:46:52;14.10;99.90
47520;DHT22;33252;48.122;11.538;2022-10-22T09:49:20;14.10;99.90
47520;DHT22;33252;48.122;11.538;2022-10-22T09:51:53;14.20;99.90
47520;DHT22;33252;48.122;11.538;2022-10-22T09:54:23;14.20;99.90
47520;DHT22;33252;48.122;11.538;2022-10-22T09:59:18;14.20;99.90
47520;DHT22;33252;48.122;11.538;2022-10-22T10:01:59;14.20;99.90
47520;DHT22;33252;48.122;11.538;2022-10-22T10:04:26;14.10;99.90
47520;DHT22;33252;48.122;11.538;2022-10-22T10:06:54;14.10;99.90
47520;DHT22;33252;48.122;11.538;2022-10-22T10:09:23;14.10;99.90
47520;DHT22;33252;48.122;11.538;2022-10-22T10:17:42;14.30;99.90
47520;DHT22;33252;48.122;11.538;2022-10-22T10:25:52;14.40;99.90
47520;DHT22;33252;48.122;11.538;2022-10-22T10:28:30;14.30;99.90
47520;DHT22;33252;48.122;11.538;2022-10-22T10:31:16;14.30;99.90
47520;DHT22;33252;48.122;11.538;2022-10-22T10:36:43;14.40;99.90
47520;DHT22;33252;48.122;11.538;2022-10-22T10:42:14;14.70;99.90
47520;DHT22;33252;48.122;11.538;2022-10-22T10:51:06;15.00;99.90
47520;DHT22;33252;48.122;11.538;2022-10-22T10:53:59;15.10;99.90
47520;DHT22;33252;48.122;11.538;2022-10-22T10:56:41;15.20;99.90
47520;DHT22;33252;48.122;11.538;2022-10-22T10:59:44;15.30;99.90
47520;DHT22;33252;48.122;11.538;2022-10-22T11:05:38;15.20;99.90
47520;DHT22;33252;48.122;11.538;2022-10-22T11:08:23;15.20;99.90
47520;DHT22;33252;48.122;11.538;2022-10-22T11:10:55;15.30;99.90
47520;DHT22;33252;48.122;11.538;2022-10-22T11:13:35;15.30;99.90
47520;DHT22;33252;48.122;11.538;2022-10-22T11:16:22;15.40;99.90
47520;DHT22;33252;48.122;11.538;2022-10-22T11:21:49;15.50;99.90
47520;DHT22;33252;48.122;11.538;2022-10-22T11:27:41;15.70;99.90
47520;DHT22;33252;48.122;11.538;2022-10-22T11:29:45;15.80;99.90
47520;DHT22;33252;48.122;11.538;2022-10-22T11:32:17;15.90;99.90
47520;DHT22;33252;48.122;11.538;2022-10-22T11:34:57;16.10;99.90
47520;DHT22;33252;48.122;11.538;2022-10-22T11:37:25;16.10;99.90
47520;DHT22;33252;48.122;11.538;2022-10-22T11:39:57;16.20;99.90
47520;DHT22;33252;48.122;11.538;2022-10-22T11:42:39;16.30;99.90
47520;DHT22;33252;48.122;11.538;2022-10-22T11:48:06;16.70;99.90
47520;DHT22;33252;48.122;11.538;2022-10-22T11:50:56;17.00;99.90
47520;DHT22;33252;48.122;11.538;2022-10-22T11:55:51;17.00;99.90
47520;DHT22;33252;48.122;11.538;2022-10-22T11:58:41;16.90;99.90
47520;DHT22;33252;48.122;11.538;2022-10-22T12:08:57;16.60;99.90
47520;DHT22;33252;48.122;11.538;2022-10-22T12:14:23;16.50;99.90
47520;DHT22;33252;48.122;11.538;2022-10-22T12:16:57;16.60;99.90
47520;DHT22;33252;48.122;11.538;2022-10-22T12:19:33;16.70;99.90
47520;DHT22;33252;48.122;11.538;2022-10-22T12:24:40;16.60;99.90
47520;DHT22;33252;48.122;11.538;2022-10-22T12:27:39;16.60;99.90
47520;DHT22;33252;48.122;11.538;2022-10-22T12:30:22;16.60;99.90
47520;DHT22;33252;48.122;11.538;2022-10-22T12:32:59;16.50;99.90
47520;DHT22;33252;48.122;11.538;2022-10-22T12:35:28;16.60;99.90
47520;DHT22;33252;48.122;11.538;2022-10-22T12:37:56;16.60;99.90
47520;DHT22;33252;48.122;11.538;2022-10-22T12:40:25;16.60;99.90
47520;DHT22;33252;48.122;11.538;2022-10-22T12:43:00;16.60;99.90
47520;DHT22;33252;48.122;11.538;2022-10-22T12:45:29;16.50;99.90
47520;DHT22;33252;48.122;11.538;2022-10-22T12:48:19;16.40;99.90
47520;DHT22;33252;48.122;11.538;2022-10-22T12:50:46;16.40;99.90
47520;DHT22;33252;48.122;11.538;2022-10-22T12:53:29;16.50;99.90
47520;DHT22;33252;48.122;11.538;2022-10-22T12:55:59;16.60;99.90
47520;DHT22;33252;48.122;11.538;2022-10-22T12:58:28;16.50;99.90
47520;DHT22;33252;48.122;11.538;2022-10-22T13:00:58;16.60;99.90
47520;DHT22;33252;48.122;11.538;2022-10-22T13:03:34;16.60;99.90
47520;DHT22;33252;48.122;11.538;2022-10-22T13:06:23;16.50;99.90
47520;DHT22;33252;48.122;11.538;2022-10-22T13:11:40;16.40;99.90
47520;DHT22;33252;48.122;11.538;2022-10-22T13:14:25;16.30;99.90
47520;DHT22;33252;48.122;11.538;2022-10-22T13:24:54;16.50;99.90
47520;DHT22;33252;48.122;11.538;2022-10-22T13:27:27;16.80;99.90
47520;DHT22;33252;48.122;11.538;2022-10-22T13:29:54;16.80;99.90
47520;DHT22;33252;48.122;11.538;2022-10-22T13:34:59;17.30;99.90
47520;DHT22;33252;48.122;11.538;2022-10-22T13:37:26;17.30;99.90
47520;DHT22;33252;48.122;11.538;2022-10-22T13:39:52;17.20;99.90
47520;DHT22;33252;48.122;11.538;2022-10-22T13:42:18;17.10;99.90
47520;DHT22;33252;48.122;11.538;2022-10-22T13:44:43;17.20;99.90
47520;DHT22;33252;48.122;11.538;2022-10-22T13:47:35;17.10;99.90
47520;DHT22;33252;48.122;11.538;2022-10-22T13:50:03;17.00;99.90
47520;DHT22;33252;48.122;11.538;2022-10-22T13:52:39;16.80;99.90
47520;DHT22;33252;48.122;11.538;2022-10-22T13:55:20;16.70;99.90
47520;DHT22;33252;48.122;11.538;2022-10-22T13:57:47;16.70;99.90
47520;DHT22;33252;48.122;11.538;2022-10-22T14:00:23;16.70;99.90
47520;DHT22;33252;48.122;11.538;2022-10-22T14:02:52;16.80;99.90
47520;DHT22;33252;48.122;11.538;2022-10-22T14:05:19;16.80;99.90
47520;DHT22;33252;48.122;11.538;2022-10-22T14:07:45;16.80;99.90
47520;DHT22;33252;48.122;11.538;2022-10-22T14:10:21;16.80;99.90
47520;DHT22;33252;48.122;11.538;2022-10-22T14:12:47;16.80;99.90
47520;DHT22;33252;48.122;11.538;2022-10-22T14:15:14;16.70;99.90
47520;DHT22;33252;48.122;11.538;2022-10-22T14:17:42;16.70;99.90
47520;DHT22;33252;48.122;11.538;2022-10-22T14:20:24;16.80;99.90
47520;DHT22;33252;48.122;11.538;2022-10-22T14:22:50;16.80;99.90
47520;DHT22;33252;48.122;11.538;2022-10-22T14:25:19;17.00;99.90
47520;DHT22;33252;48.122;11.538;2022-10-22T14:27:45;17.20;99.90
47520;DHT22;33252;48.122;11.538;2022-10-22T14:30:20;17.30;99.90
47520;DHT22;33252;48.122;11.538;2022-10-22T14:32:47;17.40;99.90
47520;DHT22;33252;48.122;11.538;2022-10-22T14:35:15;17.40;99.90
47520;DHT22;33252;48.122;11.538;2022-10-22T14:37:41;17.40;99.80
47520;DHT22;33252;48.122;11.538;2022-10-22T14:40:08;17.40;99.40
47520;DHT22;33252;48.122;11.538;2022-10-22T14:42:39;17.50;99.20
47520;DHT22;33252;48.122;11.538;2022-10-22T14:45:15;17.50;99.40
47520;DHT22;33252;48.122;11.538;2022-10-22T14:47:41;17.50;99.30
47520;DHT22;33252;48.122;11.538;2022-10-22T14:50:07;17.60;98.90
47520;DHT22;33252;48.122;11.538;2022-10-22T14:52:33;17.70;99.10
47520;DHT22;33252;48.122;11.538;2022-10-22T14:54:58;17.70;99.30
47520;DHT22;33252;48.122;11.538;2022-10-22T14:57:24;17.70;98.80
47520;DHT22;33252;48.122;11.538;2022-10-22T14:59:50;17.60;98.60
47520;DHT22;33252;48.122;11.538;2022-10-22T15:02:20;17.50;99.10
47520;DHT22;33252;48.122;11.538;2022-10-22T15:04:46;17.50;99.20
47520;DHT22;33252;48.122;11.538;2022-10-22T15:07:12;17.50;98.70
47520;DHT22;33252;48.122;11.538;2022-10-22T15:09:38;17.40;98.90
47520;DHT22;33252;48.122;11.538;2022-10-22T15:12:04;17.20;99.20
47520;DHT22;33252;48.122;11.538;2022-10-22T15:14:30;17.20;99.30
47520;DHT22;33252;48.122;11.538;2022-10-22T15:16:56;17.10;99.20
47520;DHT22;33252;48.122;11.538;2022-10-22T15:19:22;17.00;99.40
47520;DHT22;33252;48.122;11.538;2022-10-22T15:21:47;17.00;99.40
47520;DHT22;33252;48.122;11.538;2022-10-22T15:24:13;17.00;99.30
47520;DHT22;33252;48.122;11.538;2022-10-22T15:26:39;16.90;99.80
47520;DHT22;33252;48.122;11.538;2022-10-22T15:29:04;16.80;99.90
47520;DHT22;33252;48.122;11.538;2022-10-22T15:34:10;16.80;99.90
47520;DHT22;33252;48.122;11.538;2022-10-22T15:36:36;16.70;99.90
47520;DHT22;33252;48.122;11.538;2022-10-22T15:39:07;16.60;99.90
47520;DHT22;33252;48.122;11.538;2022-10-22T15:41:33;16.50;99.90
47520;DHT22;33252;48.122;11.538;2022-10-22T15:43:58;16.50;99.90
47520;DHT22;33252;48.122;11.538;2022-10-22T15:46:24;16.40;99.90
47520;DHT22;33252;48.122;11.538;2022-10-22T15:48:52;16.40;99.90
47520;DHT22;33252;48.122;11.538;2022-10-22T15:51:18;16.40;99.90
47520;DHT22;33252;48.122;11.538;2022-10-22T15:53:55;16.30;99.90
47520;DHT22;33252;48.122;11.538;2022-10-22T15:56:22;16.30;99.90
47520;DHT22;33252;48.122;11.538;2022-10-22T15:58:52;16.20;99.90
47520;DHT22;33252;48.122;11.538;2022-10-22T16:01:18;15.90;99.90
47520;DHT22;33252;48.122;11.538;2022-10-22T16:03:44;15.80;99.90
47520;DHT22;33252;48.122;11.538;2022-10-22T16:06:10;15.70;99.90
47520;DHT22;33252;48.122;11.538;2022-10-22T16:08:36;15.50;99.90
47520;DHT22;33252;48.122;11.538;2022-10-22T16:11:02;15.40;99.90
47520;DHT22;33252;48.122;11.538;2022-10-22T16:13:28;15.30;99.90
47520;DHT22;33252;48.122;11.538;2022-10-22T16:15:54;15.10;99.90
47520;DHT22;33252;48.122;11.538;2022-10-22T16:18:19;15.00;99.90
47520;DHT22;33252;48.122;11.538;2022-10-22T16:20:46;14.90;99.90
47520;DHT22;33252;48.122;11.538;2022-10-22T16:23:12;14.80;99.90
47520;DHT22;33252;48.122;11.538;2022-10-22T16:25:42;14.70;99.90
47520;DHT22;33252;48.122;11.538;2022-10-22T16:28:09;14.60;99.90
47520;DHT22;33252;48.122;11.538;2022-10-22T16:30:37;14.60;99.90
47520;DHT22;33252;48.122;11.538;2022-10-22T16:33:04;14.50;99.90
47520;DHT22;33252;48.122;11.538;2022-10-22T16:35:30;14.40;99.90
47520;DHT22;33252;48.122;11.538;2022-10-22T16:37:56;14.40;99.90
47520;DHT22;33252;48.122;11.538;2022-10-22T16:40:22;14.30;99.90
47520;DHT22;33252;48.122;11.538;2022-10-22T16:42:48;14.30;99.90
47520;DHT22;33252;48.122;11.538;2022-10-22T16:45:14;14.30;99.90
47520;DHT22;33252;48.122;11.538;2022-10-22T16:47:40;14.20;99.90
47520;DHT22;33252;48.122;11.538;2022-10-22T16:50:08;14.20;99.90
47520;DHT22;33252;48.122;11.538;2022-10-22T16:52:34;14.10;99.90
47520;DHT22;33252;48.122;11.538;2022-10-22T16:55:00;14.00;99.90
47520;DHT22;33252;48.122;11.538;2022-10-22T16:57:26;13.90;99.90
47520;DHT22;33252;48.122;11.538;2022-10-22T16:59:53;13.80;99.90
47520;DHT22;33252;48.122;11.538;2022-10-22T17:02:18;13.90;99.90
47520;DHT22;33252;48.122;11.538;2022-10-22T17:04:44;13.80;99.90
47520;DHT22;33252;48.122;11.538;2022-10-22T17:07:10;13.80;99.90